sensor_id;sensor_type;location;lat;lon;timestamp;pressure;altitude;pressure_sealevel;temperature;humidity
62680;BME280;68213;40.528;44.712;2023-04-26T00:00:46;80333.84;;;5.54;58.75
62680;BME280;68213;40.528;44.712;2023-04-26T00:01:47;80331.50;;;5.58;58.72
62680;BME280;68213;40.528;44.712;2023-04-26T00:02:50;80325.72;;;5.60;58.76
62680;BME280;68213;40.528;44.712;2023-04-26T00:03:51;80322.00;;;5.63;58.47
62680;BME280;68213;40.528;44.712;2023-04-26T00:04:54;80326.13;;;5.66;58.33
62680;BME280;68213;40.528;44.712;2023-04-26T00:06:01;80327.94;;;5.53;59.31
62680;BME280;68213;40.528;44.712;2023-04-26T00:07:05;80303.81;;;5.33;59.36
62680;BME280;68213;40.528;44.712;2023-04-26T00:08:06;80294.81;;;5.15;59.68
62680;BME280;68213;40.528;44.712;2023-04-26T00:10:15;80339.91;;;5.27;59.94
62680;BME280;68213;40.528;44.712;2023-04-26T00:11:15;80333.22;;;5.24;59.87
62680;BME280;68213;40.528;44.712;2023-04-26T00:12:16;80322.94;;;5.06;60.36
62680;BME280;68213;40.528;44.712;2023-04-26T00:13:17;80336.91;;;5.21;59.96
62680;BME280;68213;40.528;44.712;2023-04-26T00:14:18;80333.06;;;5.22;59.93
62680;BME280;68213;40.528;44.712;2023-04-26T00:15:18;80331.31;;;5.15;60.45
62680;BME280;68213;40.528;44.712;2023-04-26T00:16:19;80309.38;;;4.98;59.73
62680;BME280;68213;40.528;44.712;2023-04-26T00:17:23;80334.31;;;5.21;59.73
62680;BME280;68213;40.528;44.712;2023-04-26T00:18:24;80332.09;;;5.27;59.49
62680;BME280;68213;40.528;44.712;2023-04-26T00:19:25;80336.22;;;5.30;59.09
62680;BME280;68213;40.528;44.712;2023-04-26T00:20:27;80325.53;;;5.36;58.93
62680;BME280;68213;40.528;44.712;2023-04-26T00:21:27;80323.16;;;5.40;58.81
62680;BME280;68213;40.528;44.712;2023-04-26T00:22:28;80323.84;;;5.40;58.77
62680;BME280;68213;40.528;44.712;2023-04-26T00:23:47;80329.19;;;5.43;58.70
62680;BME280;68213;40.528;44.712;2023-04-26T00:25:07;80330.72;;;5.46;58.70
62680;BME280;68213;40.528;44.712;2023-04-26T00:26:26;80331.81;;;5.43;58.77
62680;BME280;68213;40.528;44.712;2023-04-26T00:27:27;80329.34;;;5.45;58.74
62680;BME280;68213;40.528;44.712;2023-04-26T00:28:28;80334.25;;;5.40;58.83
62680;BME280;68213;40.528;44.712;2023-04-26T00:29:29;80331.66;;;5.40;58.93
62680;BME280;68213;40.528;44.712;2023-04-26T00:30:29;80334.00;;;5.36;58.86
62680;BME280;68213;40.528;44.712;2023-04-26T00:31:30;80335.53;;;5.39;58.69
62680;BME280;68213;40.528;44.712;2023-04-26T00:32:31;80328.53;;;5.42;58.80
62680;BME280;68213;40.528;44.712;2023-04-26T00:33:34;80334.00;;;5.36;59.03
62680;BME280;68213;40.528;44.712;2023-04-26T00:34:36;80331.53;;;5.38;59.10
62680;BME280;68213;40.528;44.712;2023-04-26T00:35:37;80335.94;;;5.36;59.04
62680;BME280;68213;40.528;44.712;2023-04-26T00:36:38;80336.63;;;5.36;59.03
62680;BME280;68213;40.528;44.712;2023-04-26T00:37:39;80337.19;;;5.35;59.38
62680;BME280;68213;40.528;44.712;2023-04-26T00:38:42;80337.84;;;5.35;59.38
62680;BME280;68213;40.528;44.712;2023-04-26T00:39:42;80341.16;;;5.36;59.17
62680;BME280;68213;40.528;44.712;2023-04-26T00:40:43;80332.78;;;5.37;59.13
62680;BME280;68213;40.528;44.712;2023-04-26T00:41:44;80332.06;;;5.37;59.20
62680;BME280;68213;40.528;44.712;2023-04-26T00:42:44;80335.38;;;5.37;59.39
62680;BME280;68213;40.528;44.712;2023-04-26T00:43:45;80336.09;;;5.18;60.10
62680;BME280;68213;40.528;44.712;2023-04-26T00:44:46;80328.84;;;4.97;61.07
62680;BME280;68213;40.528;44.712;2023-04-26T00:45:47;80337.22;;;4.86;61.46
62680;BME280;68213;40.528;44.712;2023-04-26T00:46:49;80336.94;;;4.82;61.61
62680;BME280;68213;40.528;44.712;2023-04-26T00:47:52;80337.59;;;4.63;62.04
62680;BME280;68213;40.528;44.712;2023-04-26T00:48:53;80340.22;;;4.63;62.53
62680;BME280;68213;40.528;44.712;2023-04-26T00:49:54;80341.59;;;4.64;62.60
62680;BME280;68213;40.528;44.712;2023-04-26T00:50:55;80342.69;;;4.70;62.23
62680;BME280;68213;40.528;44.712;2023-04-26T00:51:56;80334.88;;;4.70;62.21
62680;BME280;68213;40.528;44.712;2023-04-26T00:52:57;80336.09;;;4.79;62.24
62680;BME280;68213;40.528;44.712;2023-04-26T00:53:59;80342.53;;;4.88;62.23
62680;BME280;68213;40.528;44.712;2023-04-26T00:55:01;80342.28;;;4.84;62.05
62680;BME280;68213;40.528;44.712;2023-04-26T00:56:05;80335.41;;;4.98;61.83
62680;BME280;68213;40.528;44.712;2023-04-26T00:57:07;80337.06;;;5.03;62.25
62680;BME280;68213;40.528;44.712;2023-04-26T00:58:10;80333.75;;;5.13;61.69
62680;BME280;68213;40.528;44.712;2023-04-26T00:59:11;80337.47;;;5.19;61.50
62680;BME280;68213;40.528;44.712;2023-04-26T01:00:14;80345.00;;;5.25;61.30
62680;BME280;68213;40.528;44.712;2023-04-26T01:01:18;80337.72;;;5.33;61.13
62680;BME280;68213;40.528;44.712;2023-04-26T01:02:19;80328.78;;;5.36;60.79
62680;BME280;68213;40.528;44.712;2023-04-26T01:03:20;80338.25;;;5.42;60.84
62680;BME280;68213;40.528;44.712;2023-04-26T01:04:21;80338.63;;;5.48;60.50
62680;BME280;68213;40.528;44.712;2023-04-26T01:05:27;80337.00;;;5.52;60.54
62680;BME280;68213;40.528;44.712;2023-04-26T01:06:32;80340.56;;;5.57;60.21
62680;BME280;68213;40.528;44.712;2023-04-26T01:07:35;80336.56;;;5.56;60.35
62680;BME280;68213;40.528;44.712;2023-04-26T01:08:36;80338.91;;;5.52;61.34
62680;BME280;68213;40.528;44.712;2023-04-26T01:09:39;80338.38;;;5.44;61.96
62680;BME280;68213;40.528;44.712;2023-04-26T01:10:40;80341.25;;;5.48;61.35
62680;BME280;68213;40.528;44.712;2023-04-26T01:11:42;80340.41;;;5.55;61.13
62680;BME280;68213;40.528;44.712;2023-04-26T01:12:43;80336.84;;;5.60;60.78
62680;BME280;68213;40.528;44.712;2023-04-26T01:13:45;80338.34;;;5.63;60.68
62680;BME280;68213;40.528;44.712;2023-04-26T01:14:46;80336.44;;;5.64;61.32
62680;BME280;68213;40.528;44.712;2023-04-26T01:15:47;80338.47;;;5.65;61.67
62680;BME280;68213;40.528;44.712;2023-04-26T01:16:49;80344.50;;;5.68;61.89
62680;BME280;68213;40.528;44.712;2023-04-26T01:17:52;80347.00;;;5.66;61.80
62680;BME280;68213;40.528;44.712;2023-04-26T01:18:54;80330.53;;;5.53;61.39
62680;BME280;68213;40.528;44.712;2023-04-26T01:19:57;80356.44;;;5.71;61.38
62680;BME280;68213;40.528;44.712;2023-04-26T01:20:57;80351.50;;;5.65;61.19
62680;BME280;68213;40.528;44.712;2023-04-26T01:21:58;80351.09;;;5.69;61.30
62680;BME280;68213;40.528;44.712;2023-04-26T01:22:59;80350.66;;;5.72;60.41
62680;BME280;68213;40.528;44.712;2023-04-26T01:24:00;80351.19;;;5.81;59.99
62680;BME280;68213;40.528;44.712;2023-04-26T01:25:03;80352.28;;;5.78;61.03
62680;BME280;68213;40.528;44.712;2023-04-26T01:26:04;80354.50;;;5.71;60.84
62680;BME280;68213;40.528;44.712;2023-04-26T01:27:06;80352.28;;;5.78;60.66
62680;BME280;68213;40.528;44.712;2023-04-26T01:28:06;80351.44;;;5.85;60.52
62680;BME280;68213;40.528;44.712;2023-04-26T01:29:20;80348.03;;;5.82;61.11
62680;BME280;68213;40.528;44.712;2023-04-26T01:30:21;80349.81;;;5.80;61.98
62680;BME280;68213;40.528;44.712;2023-04-26T01:31:22;80350.66;;;5.72;62.46
62680;BME280;68213;40.528;44.712;2023-04-26T01:32:23;80355.22;;;5.62;62.68
62680;BME280;68213;40.528;44.712;2023-04-26T01:33:24;80353.03;;;5.59;62.57
62680;BME280;68213;40.528;44.712;2023-04-26T01:34:25;80350.84;;;5.65;62.19
62680;BME280;68213;40.528;44.712;2023-04-26T01:35:26;80353.28;;;5.72;61.55
62680;BME280;68213;40.528;44.712;2023-04-26T01:36:26;80350.94;;;5.77;61.51
62680;BME280;68213;40.528;44.712;2023-04-26T01:37:30;80345.84;;;5.79;61.30
62680;BME280;68213;40.528;44.712;2023-04-26T01:38:31;80348.31;;;5.86;61.31
62680;BME280;68213;40.528;44.712;2023-04-26T01:39:32;80347.59;;;5.86;61.20
62680;BME280;68213;40.528;44.712;2023-04-26T01:40:33;80350.59;;;5.92;60.41
62680;BME280;68213;40.528;44.712;2023-04-26T01:41:34;80353.22;;;5.92;60.24
62680;BME280;68213;40.528;44.712;2023-04-26T01:42:35;80350.34;;;5.88;61.26
62680;BME280;68213;40.528;44.712;2023-04-26T01:43:36;80347.88;;;5.90;60.77
62680;BME280;68213;40.528;44.712;2023-04-26T01:44:36;80348.00;;;5.92;61.34
62680;BME280;68213;40.528;44.712;2023-04-26T01:45:37;80344.91;;;5.74;61.88
62680;BME280;68213;40.528;44.712;2023-04-26T01:46:38;80353.00;;;5.78;61.31
62680;BME280;68213;40.528;44.712;2023-04-26T01:47:39;80351.75;;;5.79;61.72
62680;BME280;68213;40.528;44.712;2023-04-26T01:48:39;80348.72;;;5.83;61.48
62680;BME280;68213;40.528;44.712;2023-04-26T01:49:40;80339.53;;;5.82;61.49
62680;BME280;68213;40.528;44.712;2023-04-26T01:50:41;80338.28;;;5.83;61.23
62680;BME280;68213;40.528;44.712;2023-04-26T01:51:42;80343.19;;;5.88;61.09
62680;BME280;68213;40.528;44.712;2023-04-26T01:52:42;80340.72;;;5.91;60.10
62680;BME280;68213;40.528;44.712;2023-04-26T01:53:43;80344.72;;;5.92;60.47
62680;BME280;68213;40.528;44.712;2023-04-26T01:54:44;80336.75;;;5.90;61.65
62680;BME280;68213;40.528;44.712;2023-04-26T01:55:45;80281.72;;;5.44;61.84
62680;BME280;68213;40.528;44.712;2023-04-26T01:56:49;80318.56;;;5.70;61.83
62680;BME280;68213;40.528;44.712;2023-04-26T01:57:50;80339.66;;;5.84;62.15
62680;BME280;68213;40.528;44.712;2023-04-26T01:59:09;80336.41;;;5.74;62.70
62680;BME280;68213;40.528;44.712;2023-04-26T02:00:28;80348.19;;;5.75;63.03
62680;BME280;68213;40.528;44.712;2023-04-26T02:01:48;80350.28;;;5.66;62.84
62680;BME280;68213;40.528;44.712;2023-04-26T02:02:49;80347.38;;;5.62;62.69
62680;BME280;68213;40.528;44.712;2023-04-26T02:03:50;80345.75;;;5.57;62.97
62680;BME280;68213;40.528;44.712;2023-04-26T02:04:51;80345.91;;;5.59;62.58
62680;BME280;68213;40.528;44.712;2023-04-26T02:05:52;80336.84;;;5.60;62.59
62680;BME280;68213;40.528;44.712;2023-04-26T02:06:52;80342.75;;;5.61;63.02
62680;BME280;68213;40.528;44.712;2023-04-26T02:07:53;80336.03;;;5.58;62.66
62680;BME280;68213;40.528;44.712;2023-04-26T02:08:55;80348.09;;;5.63;62.26
62680;BME280;68213;40.528;44.712;2023-04-26T02:09:56;80350.13;;;5.64;61.91
62680;BME280;68213;40.528;44.712;2023-04-26T02:10:57;80346.84;;;5.64;61.88
62680;BME280;68213;40.528;44.712;2023-04-26T02:11:57;80345.19;;;5.68;61.89
62680;BME280;68213;40.528;44.712;2023-04-26T02:12:58;80352.50;;;5.60;62.05
62680;BME280;68213;40.528;44.712;2023-04-26T02:13:59;80347.56;;;5.54;62.43
62680;BME280;68213;40.528;44.712;2023-04-26T02:15:00;80343.84;;;5.58;62.47
62680;BME280;68213;40.528;44.712;2023-04-26T02:16:09;80345.75;;;5.57;62.66
62680;BME280;68213;40.528;44.712;2023-04-26T02:17:09;80346.47;;;5.48;63.30
62680;BME280;68213;40.528;44.712;2023-04-26T02:18:10;80349.91;;;5.40;62.87
62680;BME280;68213;40.528;44.712;2023-04-26T02:19:12;80338.97;;;5.22;62.19
62680;BME280;68213;40.528;44.712;2023-04-26T02:20:12;80352.41;;;5.38;61.91
62680;BME280;68213;40.528;44.712;2023-04-26T02:21:15;80355.41;;;5.45;61.50
62680;BME280;68213;40.528;44.712;2023-04-26T02:22:17;80354.44;;;5.50;61.23
62680;BME280;68213;40.528;44.712;2023-04-26T02:23:19;80328.53;;;5.32;61.27
62680;BME280;68213;40.528;44.712;2023-04-26T02:24:20;80361.69;;;5.51;61.73
62680;BME280;68213;40.528;44.712;2023-04-26T02:25:20;80362.81;;;5.38;62.22
62680;BME280;68213;40.528;44.712;2023-04-26T02:26:21;80363.78;;;5.43;62.60
62680;BME280;68213;40.528;44.712;2023-04-26T02:27:22;80365.69;;;5.43;62.54
62680;BME280;68213;40.528;44.712;2023-04-26T02:28:23;80354.56;;;5.52;62.24
62680;BME280;68213;40.528;44.712;2023-04-26T02:29:23;80370.22;;;5.52;61.99
62680;BME280;68213;40.528;44.712;2023-04-26T02:30:24;80363.19;;;5.54;62.41
62680;BME280;68213;40.528;44.712;2023-04-26T02:31:25;80360.03;;;5.56;62.34
62680;BME280;68213;40.528;44.712;2023-04-26T02:32:27;80365.38;;;5.58;62.75
62680;BME280;68213;40.528;44.712;2023-04-26T02:33:27;80368.94;;;5.63;62.45
62680;BME280;68213;40.528;44.712;2023-04-26T02:34:28;80359.47;;;5.67;62.12
62680;BME280;68213;40.528;44.712;2023-04-26T02:35:29;80349.75;;;5.58;62.28
62680;BME280;68213;40.528;44.712;2023-04-26T02:36:30;80366.03;;;5.78;62.01
62680;BME280;68213;40.528;44.712;2023-04-26T02:37:32;80351.09;;;5.69;61.73
62680;BME280;68213;40.528;44.712;2023-04-26T02:38:34;80367.25;;;5.87;61.26
62680;BME280;68213;40.528;44.712;2023-04-26T02:39:35;80371.47;;;5.92;61.23
62680;BME280;68213;40.528;44.712;2023-04-26T02:40:36;80371.34;;;6.00;61.50
62680;BME280;68213;40.528;44.712;2023-04-26T02:41:37;80368.88;;;6.02;60.94
62680;BME280;68213;40.528;44.712;2023-04-26T02:42:38;80359.41;;;6.07;60.50
62680;BME280;68213;40.528;44.712;2023-04-26T02:43:38;80369.53;;;6.12;60.10
62680;BME280;68213;40.528;44.712;2023-04-26T02:44:39;80361.97;;;6.16;59.77
62680;BME280;68213;40.528;44.712;2023-04-26T02:45:43;80355.09;;;6.21;59.50
62680;BME280;68213;40.528;44.712;2023-04-26T02:46:43;80367.28;;;6.28;59.36
62680;BME280;68213;40.528;44.712;2023-04-26T02:47:44;80342.47;;;6.17;59.25
62680;BME280;68213;40.528;44.712;2023-04-26T02:48:47;80336.09;;;6.21;59.45
62680;BME280;68213;40.528;44.712;2023-04-26T02:49:48;80365.28;;;6.39;59.59
62680;BME280;68213;40.528;44.712;2023-04-26T02:50:50;80365.00;;;6.44;59.46
62680;BME280;68213;40.528;44.712;2023-04-26T02:51:51;80360.16;;;6.50;59.17
62680;BME280;68213;40.528;44.712;2023-04-26T02:52:52;80370.31;;;6.56;58.83
62680;BME280;68213;40.528;44.712;2023-04-26T02:53:53;80365.47;;;6.62;58.56
62680;BME280;68213;40.528;44.712;2023-04-26T02:54:53;80367.78;;;6.68;58.29
62680;BME280;68213;40.528;44.712;2023-04-26T02:55:54;80363.22;;;6.69;58.45
62680;BME280;68213;40.528;44.712;2023-04-26T02:56:58;80359.88;;;6.78;58.29
62680;BME280;68213;40.528;44.712;2023-04-26T02:57:59;80361.38;;;6.81;58.06
62680;BME280;68213;40.528;44.712;2023-04-26T02:58:59;80357.41;;;6.80;58.44
62680;BME280;68213;40.528;44.712;2023-04-26T03:00:00;80361.75;;;6.87;57.42
62680;BME280;68213;40.528;44.712;2023-04-26T03:01:01;80362.00;;;6.91;57.65
62680;BME280;68213;40.528;44.712;2023-04-26T03:02:05;80362.38;;;6.97;58.24
62680;BME280;68213;40.528;44.712;2023-04-26T03:03:06;80362.72;;;7.04;58.46
62680;BME280;68213;40.528;44.712;2023-04-26T03:04:08;80366.28;;;7.08;57.29
62680;BME280;68213;40.528;44.712;2023-04-26T03:05:08;80342.59;;;6.94;57.16
62680;BME280;68213;40.528;44.712;2023-04-26T03:06:10;80368.94;;;7.20;56.93
62680;BME280;68213;40.528;44.712;2023-04-26T03:07:10;80374.44;;;7.24;57.17
62680;BME280;68213;40.528;44.712;2023-04-26T03:08:11;80374.53;;;7.26;57.21
62680;BME280;68213;40.528;44.712;2023-04-26T03:09:12;80378.09;;;7.31;57.97
62680;BME280;68213;40.528;44.712;2023-04-26T03:10:12;80374.44;;;7.24;58.88
62680;BME280;68213;40.528;44.712;2023-04-26T03:11:15;80383.28;;;6.97;62.14
62680;BME280;68213;40.528;44.712;2023-04-26T03:12:16;80381.34;;;6.98;62.19
62680;BME280;68213;40.528;44.712;2023-04-26T03:13:17;80384.91;;;6.81;62.67
62680;BME280;68213;40.528;44.712;2023-04-26T03:14:17;80378.91;;;6.69;62.35
62680;BME280;68213;40.528;44.712;2023-04-26T03:15:18;80394.41;;;6.76;62.76
62680;BME280;68213;40.528;44.712;2023-04-26T03:16:19;80388.25;;;6.72;63.37
62680;BME280;68213;40.528;44.712;2023-04-26T03:17:22;80392.44;;;6.55;63.95
62680;BME280;68213;40.528;44.712;2023-04-26T03:18:23;80390.03;;;6.38;64.63
62680;BME280;68213;40.528;44.712;2023-04-26T03:19:24;80391.72;;;6.23;65.03
62680;BME280;68213;40.528;44.712;2023-04-26T03:20:25;80397.56;;;6.12;65.65
62680;BME280;68213;40.528;44.712;2023-04-26T03:21:25;80396.88;;;5.92;67.09
62680;BME280;68213;40.528;44.712;2023-04-26T03:22:27;80398.53;;;5.87;67.06
62680;BME280;68213;40.528;44.712;2023-04-26T03:23:28;80400.66;;;5.59;66.95
62680;BME280;68213;40.528;44.712;2023-04-26T03:24:28;80390.78;;;5.48;67.25
62680;BME280;68213;40.528;44.712;2023-04-26T03:25:30;80388.88;;;5.19;68.04
62680;BME280;68213;40.528;44.712;2023-04-26T03:26:31;80398.50;;;5.06;68.39
62680;BME280;68213;40.528;44.712;2023-04-26T03:27:31;80395.19;;;4.96;68.94
62680;BME280;68213;40.528;44.712;2023-04-26T03:28:32;80393.13;;;4.95;68.97
62680;BME280;68213;40.528;44.712;2023-04-26T03:29:33;80384.78;;;4.76;69.40
62680;BME280;68213;40.528;44.712;2023-04-26T03:30:34;80379.00;;;4.68;70.03
62680;BME280;68213;40.528;44.712;2023-04-26T03:31:34;80407.78;;;4.80;69.74
62680;BME280;68213;40.528;44.712;2023-04-26T03:32:35;80404.78;;;4.74;71.39
62680;BME280;68213;40.528;44.712;2023-04-26T03:33:36;80400.41;;;4.76;70.80
62680;BME280;68213;40.528;44.712;2023-04-26T03:34:37;80405.47;;;4.84;70.26
62680;BME280;68213;40.528;44.712;2023-04-26T03:35:38;80402.03;;;4.82;70.23
62680;BME280;68213;40.528;44.712;2023-04-26T03:36:38;80402.88;;;4.94;70.12
62680;BME280;68213;40.528;44.712;2023-04-26T03:37:39;80400.97;;;5.04;70.12
62680;BME280;68213;40.528;44.712;2023-04-26T03:38:40;80399.03;;;5.15;70.03
62680;BME280;68213;40.528;44.712;2023-04-26T03:39:42;80398.09;;;5.20;69.95
62680;BME280;68213;40.528;44.712;2023-04-26T03:40:42;80403.16;;;5.28;69.43
62680;BME280;68213;40.528;44.712;2023-04-26T03:41:43;80404.25;;;5.34;69.24
62680;BME280;68213;40.528;44.712;2023-04-26T03:42:45;80401.78;;;5.36;69.20
62680;BME280;68213;40.528;44.712;2023-04-26T03:43:46;80382.19;;;5.26;69.00
62680;BME280;68213;40.528;44.712;2023-04-26T03:44:47;80396.84;;;5.40;68.61
62680;BME280;68213;40.528;44.712;2023-04-26T03:45:48;80392.56;;;5.45;68.16
62680;BME280;68213;40.528;44.712;2023-04-26T03:46:49;80393.94;;;5.46;68.61
62680;BME280;68213;40.528;44.712;2023-04-26T03:47:50;80395.47;;;5.49;68.58
62680;BME280;68213;40.528;44.712;2023-04-26T03:48:51;80393.25;;;5.55;68.38
62680;BME280;68213;40.528;44.712;2023-04-26T03:49:52;80392.31;;;5.51;68.80
62680;BME280;68213;40.528;44.712;2023-04-26T03:50:52;80402.28;;;5.64;68.43
62680;BME280;68213;40.528;44.712;2023-04-26T03:51:53;80399.97;;;5.68;67.81
62680;BME280;68213;40.528;44.712;2023-04-26T03:52:54;80394.88;;;5.70;67.13
62680;BME280;68213;40.528;44.712;2023-04-26T03:53:56;80401.03;;;5.75;66.61
62680;BME280;68213;40.528;44.712;2023-04-26T03:54:57;80398.44;;;5.75;66.83
62680;BME280;68213;40.528;44.712;2023-04-26T03:55:58;80396.09;;;5.79;66.60
62680;BME280;68213;40.528;44.712;2023-04-26T03:56:59;80397.38;;;5.68;68.25
62680;BME280;68213;40.528;44.712;2023-04-26T03:57:59;80390.19;;;5.79;67.78
62680;BME280;68213;40.528;44.712;2023-04-26T03:59:00;80398.41;;;5.85;68.59
62680;BME280;68213;40.528;44.712;2023-04-26T04:00:01;80396.63;;;5.87;67.66
62680;BME280;68213;40.528;44.712;2023-04-26T04:01:04;80405.28;;;5.90;67.09
62680;BME280;68213;40.528;44.712;2023-04-26T04:02:04;80404.16;;;5.93;67.22
62680;BME280;68213;40.528;44.712;2023-04-26T04:03:05;80403.19;;;5.98;67.75
62680;BME280;68213;40.528;44.712;2023-04-26T04:04:06;80398.41;;;6.05;66.88
62680;BME280;68213;40.528;44.712;2023-04-26T04:05:07;80404.00;;;6.11;68.13
62680;BME280;68213;40.528;44.712;2023-04-26T04:06:08;80409.47;;;6.15;68.12
62680;BME280;68213;40.528;44.712;2023-04-26T04:07:11;80412.50;;;6.21;67.41
62680;BME280;68213;40.528;44.712;2023-04-26T04:08:12;80412.63;;;6.23;67.15
62680;BME280;68213;40.528;44.712;2023-04-26T04:09:13;80416.47;;;6.22;66.90
62680;BME280;68213;40.528;44.712;2023-04-26T04:10:14;80421.97;;;6.26;68.02
62680;BME280;68213;40.528;44.712;2023-04-26T04:11:15;80419.34;;;6.26;68.27
62680;BME280;68213;40.528;44.712;2023-04-26T04:12:17;80417.56;;;6.29;68.91
62680;BME280;68213;40.528;44.712;2023-04-26T04:13:17;80411.78;;;6.30;69.00
62680;BME280;68213;40.528;44.712;2023-04-26T04:14:18;80413.84;;;6.32;69.47
62680;BME280;68213;40.528;44.712;2023-04-26T04:15:19;80409.28;;;6.32;69.42
62680;BME280;68213;40.528;44.712;2023-04-26T04:16:20;80410.41;;;6.29;70.90
62680;BME280;68213;40.528;44.712;2023-04-26T04:17:21;80406.97;;;6.27;71.16
62680;BME280;68213;40.528;44.712;2023-04-26T04:18:22;80406.97;;;6.27;69.71
62680;BME280;68213;40.528;44.712;2023-04-26T04:19:22;80414.13;;;6.26;69.98
62680;BME280;68213;40.528;44.712;2023-04-26T04:20:23;80403.84;;;6.18;71.19
62680;BME280;68213;40.528;44.712;2023-04-26T04:21:24;80404.16;;;6.13;71.53
62680;BME280;68213;40.528;44.712;2023-04-26T04:22:25;80405.63;;;6.16;71.71
62680;BME280;68213;40.528;44.712;2023-04-26T04:23:25;80412.78;;;6.15;71.81
62680;BME280;68213;40.528;44.712;2023-04-26T04:24:27;80411.41;;;6.14;70.25
62680;BME280;68213;40.528;44.712;2023-04-26T04:25:29;80400.44;;;6.06;70.02
62680;BME280;68213;40.528;44.712;2023-04-26T04:26:29;80406.38;;;6.07;69.23
62680;BME280;68213;40.528;44.712;2023-04-26T04:27:31;80408.97;;;6.07;68.92
62680;BME280;68213;40.528;44.712;2023-04-26T04:28:32;80393.31;;;5.97;69.18
62680;BME280;68213;40.528;44.712;2023-04-26T04:29:33;80406.38;;;6.07;68.87
62680;BME280;68213;40.528;44.712;2023-04-26T04:30:34;80410.47;;;6.10;68.04
62680;BME280;68213;40.528;44.712;2023-04-26T04:31:35;80405.38;;;6.12;68.17
62680;BME280;68213;40.528;44.712;2023-04-26T04:32:36;80408.00;;;6.12;67.25
62680;BME280;68213;40.528;44.712;2023-04-26T04:33:37;80416.22;;;6.18;66.74
62680;BME280;68213;40.528;44.712;2023-04-26T04:34:38;80408.63;;;6.22;67.28
62680;BME280;68213;40.528;44.712;2023-04-26T04:35:42;80413.31;;;6.24;68.08
62680;BME280;68213;40.528;44.712;2023-04-26T04:36:44;80404.75;;;6.33;67.53
62680;BME280;68213;40.528;44.712;2023-04-26T04:37:44;80403.34;;;6.42;66.99
62680;BME280;68213;40.528;44.712;2023-04-26T04:38:45;80408.53;;;6.51;66.93
62680;BME280;68213;40.528;44.712;2023-04-26T04:39:46;80406.72;;;6.54;67.25
62680;BME280;68213;40.528;44.712;2023-04-26T04:40:47;80406.16;;;6.65;66.89
62680;BME280;68213;40.528;44.712;2023-04-26T04:41:49;80404.16;;;6.76;68.59
62680;BME280;68213;40.528;44.712;2023-04-26T04:42:53;80406.16;;;6.87;67.19
62680;BME280;68213;40.528;44.712;2023-04-26T04:43:54;80395.22;;;7.01;66.11
62680;BME280;68213;40.528;44.712;2023-04-26T04:44:55;80378.19;;;6.99;64.82
62680;BME280;68213;40.528;44.712;2023-04-26T04:45:56;80403.00;;;7.32;66.40
62680;BME280;68213;40.528;44.712;2023-04-26T04:46:57;80397.03;;;7.41;66.30
62680;BME280;68213;40.528;44.712;2023-04-26T04:47:58;80404.22;;;7.53;66.02
62680;BME280;68213;40.528;44.712;2023-04-26T04:48:59;80401.91;;;7.69;63.27
62680;BME280;68213;40.528;44.712;2023-04-26T04:50:01;80401.38;;;7.82;63.70
62680;BME280;68213;40.528;44.712;2023-04-26T04:51:02;80405.06;;;8.01;63.77
62680;BME280;68213;40.528;44.712;2023-04-26T04:52:04;80401.00;;;8.09;64.21
62680;BME280;68213;40.528;44.712;2023-04-26T04:53:05;80404.09;;;8.18;62.88
62680;BME280;68213;40.528;44.712;2023-04-26T04:54:11;80404.00;;;8.28;59.59
62680;BME280;68213;40.528;44.712;2023-04-26T04:55:12;80393.84;;;8.22;60.09
62680;BME280;68213;40.528;44.712;2023-04-26T04:56:12;80395.13;;;8.33;59.33
62680;BME280;68213;40.528;44.712;2023-04-26T04:57:15;80406.00;;;8.51;58.82
62680;BME280;68213;40.528;44.712;2023-04-26T04:58:16;80369.19;;;8.37;58.03
62680;BME280;68213;40.528;44.712;2023-04-26T04:59:16;80401.91;;;8.71;57.79
62680;BME280;68213;40.528;44.712;2023-04-26T05:00:18;80393.38;;;8.83;57.70
62680;BME280;68213;40.528;44.712;2023-04-26T05:01:19;80400.44;;;9.04;57.71
62680;BME280;68213;40.528;44.712;2023-04-26T05:02:21;80395.72;;;9.14;57.58
62680;BME280;68213;40.528;44.712;2023-04-26T05:03:21;80394.47;;;9.15;58.36
62680;BME280;68213;40.528;44.712;2023-04-26T05:04:22;80390.72;;;9.18;57.98
62680;BME280;68213;40.528;44.712;2023-04-26T05:05:23;80389.66;;;9.35;58.38
62680;BME280;68213;40.528;44.712;2023-04-26T05:06:24;80372.34;;;9.30;57.05
62680;BME280;68213;40.528;44.712;2023-04-26T05:07:27;80392.25;;;9.59;55.46
62680;BME280;68213;40.528;44.712;2023-04-26T05:08:27;80392.91;;;9.60;55.70
62680;BME280;68213;40.528;44.712;2023-04-26T05:09:28;80385.91;;;9.76;54.68
62680;BME280;68213;40.528;44.712;2023-04-26T05:10:29;80386.03;;;9.78;55.13
62680;BME280;68213;40.528;44.712;2023-04-26T05:11:30;80380.97;;;9.82;55.21
62680;BME280;68213;40.528;44.712;2023-04-26T05:12:32;80382.97;;;9.96;55.93
62680;BME280;68213;40.528;44.712;2023-04-26T05:13:34;80387.09;;;9.99;55.07
62680;BME280;68213;40.528;44.712;2023-04-26T05:14:35;80400.72;;;10.09;52.67
62680;BME280;68213;40.528;44.712;2023-04-26T05:15:39;80401.25;;;10.20;52.27
62680;BME280;68213;40.528;44.712;2023-04-26T05:16:40;80396.00;;;10.20;51.79
62680;BME280;68213;40.528;44.712;2023-04-26T05:17:41;80399.28;;;10.06;52.36
62680;BME280;68213;40.528;44.712;2023-04-26T05:18:41;80400.94;;;10.13;52.60
62680;BME280;68213;40.528;44.712;2023-04-26T05:19:42;80387.50;;;10.07;51.72
62680;BME280;68213;40.528;44.712;2023-04-26T05:20:43;80391.59;;;10.10;52.92
62680;BME280;68213;40.528;44.712;2023-04-26T05:21:43;80384.03;;;10.16;53.87
62680;BME280;68213;40.528;44.712;2023-04-26T05:22:45;80383.50;;;10.32;54.06
62680;BME280;68213;40.528;44.712;2023-04-26T05:23:46;80385.53;;;10.45;53.81
62680;BME280;68213;40.528;44.712;2023-04-26T05:24:47;80395.34;;;10.45;52.54
62680;BME280;68213;40.528;44.712;2023-04-26T05:25:48;80385.31;;;10.41;52.75
62680;BME280;68213;40.528;44.712;2023-04-26T05:26:50;80386.13;;;10.58;52.81
62680;BME280;68213;40.528;44.712;2023-04-26T05:27:51;80389.84;;;10.67;52.19